Time;durP1;ratioP1;P1;durP2;ratioP2;P2;SDS_P1;SDS_P2;PMS_P1;PMS_P2;Temp;Humidity;BMP_temperature;BMP_pressure;BME280_temperature;BME280_humidity;BME280_pressure;Samples;Min_cycle;Max_cycle;Signal;HPM_P1;HPM_P2
2022/05/18 00:02:32;;;;;;;31.92;14.52;;;;;;;20.10;55.73;101869.97;5187596;28;20416;-49
2022/05/18 00:05:06;;;;;;;25.60;14.88;;;;;;;20.13;55.85;101872.28;5188328;28;20432;-51
2022/05/18 00:07:39;;;;;;;23.63;14.57;;;;;;;20.06;55.73;101863.31;5183824;28;20442;-54
2022/05/18 00:10:13;;;;;;;26.42;14.98;;;;;;;20.08;55.81;101869.31;5152675;28;20450;-52
2022/05/18 00:12:47;;;;;;;27.73;13.60;;;;;;;20.02;55.68;101875.44;5178314;28;20428;-50
2022/05/18 00:15:24;;;;;;;25.70;12.10;;;;;;;19.99;55.82;101868.59;5191862;28;20506;-50
2022/05/18 00:17:59;;;;;;;20.87;11.73;;;;;;;19.99;55.87;101886.53;5159890;28;20505;-48
2022/05/18 00:20:32;;;;;;;24.60;12.50;;;;;;;19.34;55.82;101787.06;5173088;28;20934;-48
2022/05/18 00:23:06;;;;;;;23.20;11.90;;;;;;;19.95;55.93;101896.81;5185436;28;21769;-48
2022/05/18 00:25:41;;;;;;;17.27;11.07;;;;;;;19.92;56.11;101890.97;5183205;28;20405;-48
2022/05/18 00:28:14;;;;;;;23.52;12.20;;;;;;;19.89;55.94;101892.19;5174775;28;20744;-49
2022/05/18 00:30:48;;;;;;;21.70;11.63;;;;;;;19.85;56.05;101882.00;5189504;28;20454;-48
2022/05/18 00:33:22;;;;;;;23.10;12.43;;;;;;;19.83;56.17;101886.72;5179020;28;20438;-48
2022/05/18 00:35:56;;;;;;;22.50;12.25;;;;;;;19.61;56.20;101864.34;5189182;28;20514;-51
2022/05/18 00:38:31;;;;;;;24.57;12.30;;;;;;;19.75;56.25;101885.78;5189285;28;20515;-50
2022/05/18 00:41:04;;;;;;;22.58;13.27;;;;;;;19.65;56.21;101869.16;5186994;28;20431;-52
2022/05/18 00:43:42;;;;;;;22.75;13.57;;;;;;;19.68;56.38;101874.16;5189272;28;20512;-52
2022/05/18 00:46:16;;;;;;;22.77;12.35;;;;;;;19.66;56.27;101891.44;5177680;28;20521;-53
2022/05/18 00:48:53;;;;;;;20.85;12.70;;;;;;;19.64;56.33;101888.94;5183440;28;20469;-53
2022/05/18 00:51:33;;;;;;;20.88;13.00;;;;;;;19.54;56.46;101882.97;5202042;28;20631;-51
2022/05/18 00:54:10;;;;;;;18.38;11.50;;;;;;;19.56;56.59;101899.72;5206764;28;20407;-51
2022/05/18 00:56:54;;;;;;;21.88;13.25;;;;;;;19.48;56.51;101894.41;5197802;28;20418;-52
2022/05/18 00:59:30;;;;;;;22.50;14.03;;;;;;;19.50;56.73;101903.13;5195133;28;20429;-51
2022/05/18 01:02:05;;;;;;;21.07;12.63;;;;;;;19.46;56.70;101904.50;5188229;28;20481;-50
2022/05/18 01:04:41;;;;;;;19.45;11.23;;;;;;;19.41;56.82;101910.41;5201153;28;20429;-51
2022/05/18 01:07:17;;;;;;;24.25;13.82;;;;;;;19.28;56.85;101886.91;5180973;28;20415;-49
2022/05/18 01:09:50;;;;;;;25.92;14.10;;;;;;;19.28;56.98;101900.31;5203640;28;20500;-49
2022/05/18 01:12:23;;;;;;;25.27;13.55;;;;;;;19.31;56.94;101899.94;5207130;28;20972;-51
2022/05/18 01:15:00;;;;;;;23.83;15.10;;;;;;;19.28;57.09;101900.31;5178141;28;20839;-50
2022/05/18 01:17:35;;;;;;;32.40;14.77;;;;;;;19.19;57.21;101890.69;5216609;28;20417;-49
2022/05/18 01:20:13;;;;;;;34.13;16.70;;;;;;;19.20;57.35;101899.53;5205925;28;20455;-50
2022/05/18 01:22:55;;;;;;;29.08;15.23;;;;;;;19.11;57.29;101888.09;5201382;28;20541;-50
2022/05/18 01:25:56;;;;;;;25.20;15.82;;;;;;;19.09;57.49;101887.44;5176327;28;20420;-52
2022/05/18 01:28:37;;;;;;;26.85;15.40;;;;;;;19.08;57.52;101893.81;5174027;28;20420;-49
2022/05/18 01:31:10;;;;;;;24.93;15.53;;;;;;;19.01;57.59;101890.16;5177995;28;20863;-48
2022/05/18 01:33:42;;;;;;;21.00;15.55;;;;;;;18.93;57.52;101871.50;5185151;28;20499;-48
2022/05/18 01:36:14;;;;;;;23.73;15.40;;;;;;;19.01;57.59;101899.03;5185682;28;20442;-51
2022/05/18 01:38:47;;;;;;;23.38;15.13;;;;;;;18.99;57.75;101889.53;5196295;28;20513;-49
2022/05/18 01:41:22;;;;;;;28.00;16.52;;;;;;;18.95;57.48;101891.72;5199786;28;20411;-51
2022/05/18 01:44:00;;;;;;;28.55;18.08;;;;;;;18.92;57.90;101889.38;5210373;28;20428;-48
2022/05/18 01:46:33;;;;;;;29.92;18.75;;;;;;;18.87;58.00;101897.13;5211145;28;20417;-52
2022/05/18 01:49:06;;;;;;;33.28;19.15;;;;;;;18.74;57.95;101875.50;5199987;28;20510;-48
2022/05/18 01:51:44;;;;;;;36.50;19.52;;;;;;;18.64;58.12;101859.63;5211710;28;21062;-52
2022/05/18 01:54:16;;;;;;;29.83;18.95;;;;;;;18.78;58.29;101882.97;5205810;28;20413;-52
2022/05/18 01:56:49;;;;;;;36.20;20.48;;;;;;;18.75;58.38;101872.63;5208677;28;20417;-52
2022/05/18 01:59:23;;;;;;;37.67;21.58;;;;;;;18.75;58.42;101875.31;5206156;28;20781;-50
2022/05/18 02:01:55;;;;;;;30.30;19.98;;;;;;;18.73;58.45;101869.28;5214874;28;20506;-50
2022/05/18 02:04:31;;;;;;;40.17;21.63;;;;;;;18.60;58.70;101855.66;5213373;28;20479;-52
2022/05/18 02:07:05;;;;;;;36.60;21.58;;;;;;;18.69;58.38;101872.47;5209074;28;20409;-49
2022/05/18 02:09:38;;;;;;;38.40;23.60;;;;;;;18.69;58.75;101873.31;5211006;28;20434;-49
2022/05/18 02:12:13;;;;;;;41.53;25.90;;;;;;;18.59;59.02;101867.38;5204223;28;20516;-49
2022/05/18 02:14:47;;;;;;;50.73;26.50;;;;;;;18.60;59.30;101874.38;5210597;28;20406;-48
2022/05/18 02:17:19;;;;;;;42.15;25.63;;;;;;;18.61;59.19;101871.53;5188517;28;20783;-50
2022/05/18 02:19:52;;;;;;;44.05;24.25;;;;;;;18.63;59.26;101874.03;5175683;28;20437;-52
2022/05/18 02:22:25;;;;;;;50.08;27.17;;;;;;;18.57;59.40;101869.38;5200622;28;20901;-52
2022/05/18 02:24:57;;;;;;;43.78;27.23;;;;;;;18.52;59.37;101853.03;5195373;28;20440;-52
2022/05/18 02:27:30;;;;;;;41.28;26.88;;;;;;;18.48;59.39;101844.53;5213312;28;22826;-51
2022/05/18 02:30:06;;;;;;;53.95;30.15;;;;;;;18.47;59.35;101842.03;5205194;28;20418;-49
2022/05/18 02:32:39;;;;;;;47.08;28.08;;;;;;;18.64;59.48;101864.97;5210630;28;20412;-52
2022/05/18 02:35:12;;;;;;;48.88;30.35;;;;;;;18.57;59.38;101862.19;5197512;28;20493;-54
2022/05/18 02:37:45;;;;;;;45.00;27.00;;;;;;;18.56;59.57;101863.19;5187016;28;20439;-51
2022/05/18 02:40:17;;;;;;;43.38;27.02;;;;;;;18.59;59.63;101864.69;5185115;28;20439;-51
2022/05/18 02:42:50;;;;;;;51.00;28.17;;;;;;;18.49;59.55;101853.38;5203789;28;20397;-53
2022/05/18 02:45:24;;;;;;;44.97;26.27;;;;;;;18.30;59.71;101820.75;5211127;28;20429;-52
2022/05/18 02:47:57;;;;;;;52.03;28.05;;;;;;;18.53;59.76;101860.06;5209222;28;20455;-50
2022/05/18 02:50:29;;;;;;;38.42;24.85;;;;;;;18.39;59.77;101835.72;5199548;28;20432;-53
2022/05/18 02:53:02;;;;;;;48.33;26.90;;;;;;;18.34;59.85;101832.75;5207781;28;21476;-51
2022/05/18 02:58:25;;;;;;;44.20;26.40;;;;;;;18.50;59.71;101857.72;5204659;28;20889;-51
2022/05/18 03:00:59;;;;;;;38.05;25.13;;;;;;;18.55;59.82;101855.34;5209302;28;20429;-49
2022/05/18 03:03:32;;;;;;;42.90;24.73;;;;;;;18.38;60.00;101835.91;5208185;28;20417;-48
2022/05/18 03:06:05;;;;;;;41.40;24.27;;;;;;;18.47;59.88;101853.56;5211010;28;20589;-53
2022/05/18 03:08:41;;;;;;;35.65;23.60;;;;;;;18.41;60.00;101849.75;5199455;28;20810;-51
2022/05/18 03:11:15;;;;;;;38.78;23.42;;;;;;;18.50;59.97;101871.09;5206241;28;20823;-52
2022/05/18 03:13:47;;;;;;;40.88;25.20;;;;;;;18.41;59.97;101848.91;5203489;28;20433;-50
2022/05/18 03:16:22;;;;;;;38.40;23.58;;;;;;;18.54;59.85;101875.09;5202570;28;20420;-49
2022/05/18 03:18:55;;;;;;;36.50;22.30;;;;;;;18.53;59.89;101886.81;5196134;28;20909;-48
2022/05/18 03:24:17;;;;;;;36.65;23.70;;;;;;;18.54;59.91;101891.97;5208596;28;20418;-52
2022/05/18 03:26:52;;;;;;;43.97;25.42;;;;;;;18.53;59.84;101881.47;5207040;28;20425;-52
2022/05/18 03:29:24;;;;;;;41.60;24.52;;;;;;;18.56;59.89;101889.13;5206953;28;20797;-53
2022/05/18 03:31:58;;;;;;;34.33;22.90;;;;;;;18.60;59.83;101885.06;5206716;28;20436;-50
2022/05/18 03:34:34;;;;;;;39.30;22.98;;;;;;;18.64;59.71;101883.69;5210350;28;20500;-51
2022/05/18 03:37:09;;;;;;;35.78;22.70;;;;;;;18.47;59.77;101864.25;5198295;28;20409;-50
2022/05/18 03:39:41;;;;;;;33.53;21.73;;;;;;;18.69;59.54;101899.25;5192014;28;20968;-51
2022/05/18 03:42:14;;;;;;;30.75;19.77;;;;;;;18.72;59.39;101898.88;5208541;28;20498;-50
2022/05/18 03:44:46;;;;;;;33.70;20.05;;;;;;;18.78;59.33;101907.06;5208347;28;20516;-51
2022/05/18 03:47:20;;;;;;;32.10;20.02;;;;;;;18.75;59.30;101898.56;5208276;28;20565;-51
2022/05/18 03:49:52;;;;;;;35.13;24.70;;;;;;;18.77;59.20;101892.03;5207102;28;20414;-52
2022/05/18 03:52:25;;;;;;;31.20;18.65;;;;;;;18.86;58.87;101907.03;5212005;28;20447;-47
2022/05/18 03:54:58;;;;;;;30.08;18.75;;;;;;;18.89;58.89;101906.66;5204733;28;20930;-51
2022/05/18 03:57:34;;;;;;;34.20;19.13;;;;;;;18.77;58.72;101878.66;5191919;28;20787;-51
2022/05/18 04:00:08;;;;;;;29.60;18.05;;;;;;;18.78;58.52;101887.50;5199981;28;20410;-51
2022/05/18 04:02:42;;;;;;;30.10;18.67;;;;;;;18.91;58.54;101908.31;5203097;28;20432;-52
2022/05/18 04:05:16;;;;;;;28.48;17.35;;;;;;;18.84;58.43;101903.69;5207356;28;20409;-54
2022/05/18 04:07:49;;;;;;;32.67;20.00;;;;;;;18.86;58.28;101909.69;5202732;28;20786;-52
2022/05/18 04:10:23;;;;;;;26.53;17.53;;;;;;;18.82;58.37;101899.50;5204328;28;20527;-50
2022/05/18 04:12:58;;;;;;;27.40;18.40;;;;;;;18.99;58.22;101924.34;5201232;28;20532;-50
2022/05/18 04:15:33;;;;;;;27.90;17.95;;;;;;;18.95;58.13;101920.31;5198863;28;20409;-52
2022/05/18 04:18:07;;;;;;;27.73;17.92;;;;;;;19.00;58.10;101934.84;5206949;28;20487;-50
2022/05/18 04:20:41;;;;;;;27.37;17.60;;;;;;;19.02;58.00;101922.13;5208694;28;20475;-52
2022/05/18 04:23:14;;;;;;;27.15;17.75;;;;;;;18.93;57.90;101912.50;5205351;28;20452;-50
2022/05/18 04:25:47;;;;;;;35.38;18.48;;;;;;;19.19;57.87;101943.41;5205035;28;20508;-52
2022/05/18 04:28:20;;;;;;;38.42;18.30;;;;;;;19.27;58.00;101946.88;5205751;28;20475;-49
2022/05/18 04:30:53;;;;;;;35.83;19.10;;;;;;;19.19;57.92;101933.53;5204181;28;20499;-51
2022/05/18 04:33:27;;;;;;;28.38;18.50;;;;;;;19.38;57.67;101950.13;5203595;28;20551;-51
2022/05/18 04:36:02;;;;;;;30.23;18.58;;;;;;;19.51;57.46;101953.00;5204151;28;23295;-52
2022/05/18 04:38:34;;;;;;;30.48;19.25;;;;;;;19.62;57.43;101959.78;5204846;28;20500;-54
2022/05/18 04:41:08;;;;;;;27.58;19.25;;;;;;;19.73;57.24;101957.53;5203064;28;20475;-52
2022/05/18 04:43:40;;;;;;;32.55;20.40;;;;;;;19.45;57.18;101909.03;5201201;28;20542;-49
2022/05/18 04:46:13;;;;;;;33.80;21.05;;;;;;;19.78;56.72;101939.03;5177553;28;20910;-48
2022/05/18 04:48:47;;;;;;;31.25;20.40;;;;;;;19.98;56.71;101946.53;5195369;28;20839;-51
2022/05/18 04:51:19;;;;;;;34.38;20.35;;;;;;;20.10;56.36;101953.13;5182603;28;20788;-49
2022/05/18 04:53:52;;;;;;;38.28;20.73;;;;;;;20.11;56.35;101944.03;5181276;28;20497;-53
2022/05/18 04:56:25;;;;;;;41.50;20.70;;;;;;;20.29;56.17;101961.63;5179816;28;20435;-49
2022/05/18 04:58:58;;;;;;;31.85;19.45;;;;;;;20.32;55.84;101955.88;5203807;28;20452;-50
2022/05/18 05:01:30;;;;;;;32.40;17.73;;;;;;;20.42;55.76;101961.78;5205577;28;25222;-58
2022/05/18 05:04:09;;;;;;;36.28;19.52;;;;;;;20.46;55.77;101968.41;5183425;28;20438;-53
2022/05/18 05:06:43;;;;;;;37.72;19.50;;;;;;;20.52;55.36;101964.19;5190068;28;20739;-56
2022/05/18 05:09:16;;;;;;;36.25;18.75;;;;;;;20.57;55.30;101986.75;5205048;28;20941;-53
2022/05/18 05:11:48;;;;;;;29.08;17.52;;;;;;;20.63;55.20;101979.81;5204790;28;20450;-49
2022/05/18 05:14:22;;;;;;;28.73;18.80;;;;;;;20.67;55.00;101989.97;5198975;28;20416;-49
2022/05/18 05:16:54;;;;;;;31.63;18.40;;;;;;;20.19;54.72;101889.44;5205817;28;20746;-48
2022/05/18 05:19:30;;;;;;;28.55;18.17;;;;;;;20.82;54.50;101981.06;5202955;28;20924;-49
2022/05/18 05:22:05;;;;;;;28.50;17.92;;;;;;;20.83;54.43;101974.66;5203630;28;20464;-48
2022/05/18 05:24:37;;;;;;;24.92;17.67;;;;;;;20.93;54.25;101985.91;5207420;28;20501;-48
2022/05/18 05:27:09;;;;;;;30.80;19.30;;;;;;;20.88;54.11;101983.81;5205233;28;20460;-49
2022/05/18 05:29:42;;;;;;;30.80;18.90;;;;;;;20.80;53.77;101948.19;5201880;28;20468;-54
2022/05/18 05:32:14;;;;;;;29.80;17.77;;;;;;;20.98;53.83;101972.75;5204472;28;20494;-53
2022/05/18 05:34:48;;;;;;;37.63;19.52;;;;;;;21.14;53.47;101988.63;5194333;28;20537;-49
2022/05/18 05:37:21;;;;;;;32.87;20.00;;;;;;;21.18;53.48;101989.91;5191348;28;20512;-49
2022/05/18 05:39:55;;;;;;;36.55;20.65;;;;;;;21.34;53.38;101994.19;5186013;28;20521;-50
2022/05/18 05:42:27;;;;;;;35.00;18.27;;;;;;;21.43;53.23;101986.88;5192855;28;20425;-49
2022/05/18 05:45:00;;;;;;;31.98;18.98;;;;;;;21.47;53.31;101969.31;5202771;28;20419;-51
2022/05/18 05:47:34;;;;;;;30.52;18.20;;;;;;;21.69;52.89;101990.78;5197073;28;20927;-50
2022/05/18 05:50:13;;;;;;;28.60;18.10;;;;;;;21.92;52.69;101996.72;5192159;28;20465;-50
2022/05/18 05:52:46;;;;;;;27.00;16.40;;;;;;;22.31;52.41;101998.03;5197565;28;20539;-50
2022/05/18 05:55:19;;;;;;;24.33;15.50;;;;;;;22.79;51.86;101987.22;5186046;28;20491;-56
2022/05/18 05:57:53;;;;;;;29.42;15.65;;;;;;;23.28;51.29;101980.72;5167934;28;20465;-49
2022/05/18 06:00:32;;;;;;;27.00;14.55;;;;;;;23.55;50.97;101986.94;5165745;28;21180;-51
2022/05/18 06:03:04;;;;;;;26.20;15.02;;;;;;;23.47;50.71;101974.53;5153360;28;20411;-52
2022/05/18 06:05:38;;;;;;;27.45;16.58;;;;;;;23.56;50.81;102012.03;5159774;28;20416;-49
2022/05/18 06:08:11;;;;;;;21.88;15.05;;;;;;;23.37;50.94;101998.34;5157273;28;20514;-55
2022/05/18 06:10:44;;;;;;;24.33;15.50;;;;;;;23.21;50.81;101985.28;5163517;28;20534;-51
2022/05/18 06:13:16;;;;;;;29.33;16.63;;;;;;;23.33;50.73;102009.78;5174530;28;20502;-50
2022/05/18 06:15:50;;;;;;;26.63;15.40;;;;;;;23.34;50.65;102028.41;5173535;28;20514;-52
2022/05/18 06:18:23;;;;;;;28.17;15.57;;;;;;;23.24;50.83;102018.03;5177981;28;20541;-50
2022/05/18 06:20:57;;;;;;;22.53;14.07;;;;;;;23.17;50.84;102035.25;5172713;28;20458;-49
2022/05/18 06:23:30;;;;;;;25.50;14.45;;;;;;;23.07;50.88;102029.41;5175824;28;20447;-51
2022/05/18 06:26:05;;;;;;;23.23;13.60;;;;;;;22.98;50.90;102034.16;5189130;28;20422;-53
2022/05/18 06:28:40;;;;;;;24.80;13.60;;;;;;;24.02;50.01;102043.59;5162165;28;20442;-55
2022/05/18 06:31:12;;;;;;;19.67;11.63;;;;;;;25.62;48.28;102024.78;5180544;28;20510;-57
2022/05/18 06:33:45;;;;;;;21.50;10.95;;;;;;;27.33;46.50;102041.97;5183262;28;20524;-54
2022/05/18 06:36:19;;;;;;;18.17;11.48;;;;;;;28.16;45.56;102029.31;5176543;28;20416;-56
2022/05/18 06:38:51;;;;;;;18.65;10.45;;;;;;;28.33;45.46;102045.69;5183830;28;20415;-55
2022/05/18 06:41:24;;;;;;;20.58;8.85;;;;;;;27.85;45.51;102039.47;5171520;28;20460;-52
2022/05/18 06:44:00;;;;;;;14.85;8.35;;;;;;;27.38;46.18;102039.41;5180389;28;20418;-54
2022/05/18 06:46:35;;;;;;;14.75;7.68;;;;;;;27.19;46.41;102073.06;5173854;28;20467;-52
2022/05/18 06:49:13;;;;;;;16.25;8.57;;;;;;;26.83;46.64;102075.63;5184881;28;20425;-53
2022/05/18 06:51:48;;;;;;;17.35;8.63;;;;;;;26.51;46.97;102082.25;5164859;28;20427;-53
2022/05/18 06:54:23;;;;;;;17.00;9.45;;;;;;;26.26;47.01;102085.00;5181278;28;20434;-56
2022/05/18 06:56:56;;;;;;;13.50;9.70;;;;;;;25.94;47.34;102077.81;5179221;28;20431;-54
2022/05/18 06:59:32;;;;;;;19.00;9.40;;;;;;;25.68;47.52;102076.13;5180211;28;20431;-52
2022/05/18 07:02:05;;;;;;;20.48;10.60;;;;;;;25.56;47.65;102077.88;5175892;28;20403;-53
2022/05/18 07:04:38;;;;;;;15.20;9.63;;;;;;;25.53;47.73;102081.84;5181863;28;20507;-54
2022/05/18 07:07:11;;;;;;;16.60;8.95;;;;;;;25.60;47.71;102081.81;5177482;28;20474;-49
2022/05/18 07:09:44;;;;;;;15.88;8.75;;;;;;;25.74;47.56;102083.38;5157152;28;20429;-51
2022/05/18 07:12:16;;;;;;;18.73;8.65;;;;;;;26.16;47.14;102088.22;5169806;28;20471;-53
2022/05/18 07:14:49;;;;;;;11.80;8.20;;;;;;;26.73;46.50;102079.91;5174993;28;20508;-52
2022/05/18 07:17:21;;;;;;;15.45;7.72;;;;;;;27.04;46.28;102092.47;5179247;28;20438;-54
2022/05/18 07:19:54;;;;;;;18.38;8.40;;;;;;;27.00;45.96;102100.19;5166162;28;20520;-55
2022/05/18 07:22:28;;;;;;;19.63;10.00;;;;;;;26.92;46.09;102103.25;5164681;28;20532;-54
2022/05/18 07:25:03;;;;;;;19.02;9.52;;;;;;;27.21;45.99;102084.53;5178131;28;22671;-54
2022/05/18 07:27:36;;;;;;;17.08;9.50;;;;;;;28.00;45.17;102091.44;5170794;28;20426;-55
2022/05/18 07:30:13;;;;;;;20.15;10.75;;;;;;;28.82;44.25;102087.75;5163442;28;20512;-57
2022/05/18 07:32:45;;;;;;;23.77;11.80;;;;;;;29.59;43.51;102097.34;5165530;28;20460;-58
2022/05/18 07:35:18;;;;;;;20.48;11.45;;;;;;;30.13;42.88;102092.22;5180824;28;20421;-57
2022/05/18 07:37:52;;;;;;;22.75;11.13;;;;;;;30.65;42.58;102089.13;5183694;28;20789;-58
2022/05/18 07:40:24;;;;;;;21.55;12.23;;;;;;;31.23;41.79;102095.78;5182609;28;20422;-58
2022/05/18 07:43:04;;;;;;;25.55;12.93;;;;;;;31.33;41.61;102073.22;5183460;28;20421;-58
2022/05/18 07:45:37;;;;;;;24.10;13.02;;;;;;;31.48;41.56;102078.03;5182240;28;20419;-59
2022/05/18 07:48:12;;;;;;;27.40;14.10;;;;;;;31.92;41.31;102096.94;5185322;28;20957;-58
2022/05/18 07:50:47;;;;;;;29.98;13.50;;;;;;;32.19;40.98;102096.03;5183597;28;20425;-60
2022/05/18 07:53:21;;;;;;;27.27;13.25;;;;;;;32.39;40.62;102096.13;5203599;28;20794;-59
2022/05/18 07:55:54;;;;;;;21.65;12.70;;;;;;;32.45;40.63;102108.75;5203044;28;20763;-57
2022/05/18 07:58:27;;;;;;;23.00;13.00;;;;;;;32.59;40.29;102117.31;5207818;28;20777;-57
2022/05/18 08:00:59;;;;;;;22.40;11.85;;;;;;;32.75;40.42;102120.94;5213723;28;20425;-57
2022/05/18 08:03:32;;;;;;;28.92;12.63;;;;;;;32.81;40.26;102108.91;5211517;28;20470;-57
2022/05/18 08:06:04;;;;;;;22.65;12.85;;;;;;;32.92;39.74;102118.81;5206740;28;20507;-62
2022/05/18 08:08:38;;;;;;;25.90;12.93;;;;;;;33.02;39.74;102137.19;5207513;28;21156;-59
2022/05/18 08:16:51;;;;;;;22.58;12.52;;;;;;;32.98;39.49;102131.41;5203457;28;20413;-58
2022/05/18 08:19:24;;;;;;;24.83;12.43;;;;;;;33.06;39.55;102136.38;5208516;28;20883;-59
2022/05/18 08:21:56;;;;;;;20.75;11.30;;;;;;;32.96;39.34;102117.16;5201129;28;20421;-59
2022/05/18 08:24:30;;;;;;;22.30;12.05;;;;;;;32.91;39.32;102147.25;5196249;28;20405;-58
2022/05/18 08:27:06;;;;;;;23.67;13.07;;;;;;;32.62;39.13;102149.59;5197603;28;20429;-58
2022/05/18 08:29:38;;;;;;;22.02;13.43;;;;;;;32.08;39.17;102120.56;5208013;28;20421;-57
2022/05/18 08:32:13;;;;;;;29.60;13.30;;;;;;;31.79;39.42;102124.69;5188569;28;20460;-48
2022/05/18 08:34:46;;;;;;;24.55;13.43;;;;;;;31.69;39.38;102155.50;5203700;28;20436;-58
2022/05/18 08:37:22;;;;;;;23.25;12.93;;;;;;;31.43;39.20;102159.88;5195816;28;20425;-58
2022/05/18 08:39:56;;;;;;;29.67;12.38;;;;;;;31.22;39.08;102156.94;5190025;28;20421;-58
2022/05/18 08:42:29;;;;;;;25.98;12.27;;;;;;;30.43;39.69;102097.31;5205277;28;20421;-57
2022/05/18 08:45:02;;;;;;;21.13;12.83;;;;;;;30.51;39.91;102161.47;5205648;28;27433;-57
2022/05/18 08:47:43;;;;;;;20.50;11.50;;;;;;;30.39;39.66;102183.41;5207602;28;20443;-56
2022/05/18 08:50:20;;;;;;;19.70;12.10;;;;;;;30.22;39.58;102156.16;5200645;28;20433;-60
2022/05/18 08:53:29;;;;;;;22.67;12.77;;;;;;;30.14;39.63;102156.56;5204899;28;20430;-56
2022/05/18 08:56:09;;;;;;;20.05;11.73;;;;;;;30.20;39.55;102180.13;5198901;28;20409;-58
2022/05/18 08:58:45;;;;;;;23.40;12.63;;;;;;;30.25;39.42;102182.06;5195627;28;20536;-58
2022/05/18 09:01:25;;;;;;;17.05;10.57;;;;;;;30.12;39.31;102160.59;5184326;28;20423;-57
2022/05/18 09:04:02;;;;;;;20.77;11.40;;;;;;;30.20;39.18;102166.50;5202657;28;20413;-56
2022/05/18 09:06:40;;;;;;;21.63;10.35;;;;;;;30.32;38.87;102178.13;5202600;28;20413;-56
2022/05/18 09:12:09;;;;;;;18.63;10.27;;;;;;;30.28;38.45;102171.50;5204763;28;20415;-56
2022/05/18 09:14:43;;;;;;;24.10;10.68;;;;;;;30.36;38.52;102183.06;5202770;28;20464;-57
2022/05/18 09:17:27;;;;;;;17.98;10.43;;;;;;;30.37;38.42;102181.97;5211337;28;21018;-56
2022/05/18 09:20:13;;;;;;;18.95;9.70;;;;;;;30.06;38.42;102165.97;5204546;28;20435;-56
2022/05/18 09:23:11;;;;;;;19.90;10.33;;;;;;;30.02;38.47;102183.88;5200793;28;20422;-55
2022/05/18 09:26:01;;;;;;;13.75;8.23;;;;;;;29.99;38.32;102180.84;5206868;28;20432;-56
2022/05/18 09:28:51;;;;;;;14.52;8.65;;;;;;;29.75;38.45;102191.88;5202427;28;20482;-55
2022/05/18 09:31:43;;;;;;;12.90;7.32;;;;;;;29.61;38.52;102196.00;5207514;28;20450;-61
2022/05/18 09:34:36;;;;;;;11.07;7.32;;;;;;;29.45;38.37;102177.66;5195223;28;20505;-56
2022/05/18 09:37:30;;;;;;;14.32;7.68;;;;;;;29.52;38.47;102200.13;5213197;28;20482;-56
2022/05/18 09:40:11;;;;;;;17.83;8.38;;;;;;;29.28;38.34;102193.97;5210632;28;20929;-53
2022/05/18 09:42:50;;;;;;;16.50;7.85;;;;;;;29.14;38.68;102171.63;5202934;28;20433;-57
2022/05/18 09:45:29;;;;;;;14.73;7.20;;;;;;;29.29;38.42;102184.72;5191143;28;20456;-54
2022/05/18 09:48:04;;;;;;;15.32;7.72;;;;;;;29.38;38.29;102189.53;5205347;28;20864;-57
2022/05/18 09:50:38;;;;;;;15.07;7.82;;;;;;;29.50;38.16;102194.09;5211508;28;20479;-53
2022/05/18 09:53:12;;;;;;;12.40;6.95;;;;;;;29.49;38.07;102206.06;5212856;28;20410;-56
2022/05/18 09:55:47;;;;;;;12.77;7.22;;;;;;;29.48;38.03;102202.50;5210489;28;20419;-56
2022/05/18 09:58:27;;;;;;;19.88;7.03;;;;;;;29.47;37.65;102192.69;5214556;28;20782;-53
2022/05/18 10:07:30;;;;;;;16.05;6.53;;;;;;;29.85;37.31;102189.31;5209130;28;20421;-56
2022/05/18 10:10:11;;;;;;;10.88;6.05;;;;;;;30.06;37.14;102200.56;5210912;28;20409;-54
2022/05/18 10:12:47;;;;;;;14.07;6.38;;;;;;;30.27;36.92;102207.19;5210821;28;20427;-52
2022/05/18 10:15:29;;;;;;;12.35;6.55;;;;;;;30.20;36.55;102180.13;5212200;28;20499;-53
2022/05/18 10:18:19;;;;;;;14.90;6.40;;;;;;;30.51;36.50;102207.81;5214199;28;20405;-54
2022/05/18 10:21:11;;;;;;;13.15;6.63;;;;;;;30.43;36.28;102200.06;5202217;28;20768;-55
2022/05/18 10:23:48;;;;;;;13.15;6.50;;;;;;;30.58;36.13;102197.56;5194258;28;20422;-56
2022/05/18 10:26:26;;;;;;;13.48;6.35;;;;;;;30.71;36.03;102202.66;5204719;28;20425;-56
2022/05/18 10:29:04;;;;;;;16.90;6.72;;;;;;;30.83;35.84;102199.00;5209643;28;20437;-56
2022/05/18 10:31:42;;;;;;;12.70;6.45;;;;;;;30.47;35.92;102136.59;5203436;28;20470;-56
2022/05/18 10:34:24;;;;;;;13.38;6.72;;;;;;;30.80;35.69;102178.53;5191679;28;20447;-55
2022/05/18 10:36:59;;;;;;;10.40;6.07;;;;;;;30.92;35.75;102195.59;5218276;28;20419;-57
2022/05/18 10:39:41;;;;;;;11.60;6.32;;;;;;;30.74;35.95;102190.41;5203458;28;20401;-54
2022/05/18 10:42:24;;;;;;;14.23;6.83;;;;;;;30.64;35.86;102169.28;5196748;28;20442;-59
2022/05/18 10:45:01;;;;;;;12.68;7.13;;;;;;;30.60;35.75;102179.06;5196969;28;20764;-56
2022/05/18 10:47:38;;;;;;;11.30;6.15;;;;;;;30.73;35.73;102189.59;5205092;28;20418;-53
2022/05/18 10:50:25;;;;;;;9.65;6.53;;;;;;;30.72;35.67;102192.56;5203985;28;20497;-53
2022/05/18 10:53:02;;;;;;;16.00;7.25;;;;;;;30.71;35.77;102201.81;5213156;28;20417;-54
2022/05/18 10:55:35;;;;;;;11.23;6.23;;;;;;;30.25;35.58;102122.94;5206780;28;20483;-54
2022/05/18 10:58:24;;;;;;;12.50;5.80;;;;;;;30.75;35.57;102209.25;5200383;28;20496;-56
2022/05/18 11:01:00;;;;;;;9.37;5.90;;;;;;;30.78;35.57;102203.34;5209000;28;20437;-56
2022/05/18 11:03:42;;;;;;;15.38;6.57;;;;;;;30.76;35.68;102193.72;5205221;28;20848;-55
2022/05/18 11:06:20;;;;;;;8.77;5.15;;;;;;;30.40;35.62;102151.50;5202989;28;20411;-55
2022/05/18 11:08:53;;;;;;;11.90;6.10;;;;;;;30.57;35.76;102195.91;5206831;28;20425;-56
2022/05/18 11:11:40;;;;;;;10.50;6.03;;;;;;;30.50;35.93;102217.06;5208478;28;20429;-56
2022/05/18 11:14:21;;;;;;;12.45;5.40;;;;;;;30.45;36.00;102214.28;5203454;28;20449;-54
2022/05/18 11:17:03;;;;;;;9.93;5.30;;;;;;;30.46;36.05;102215.91;5201754;28;20424;-54
2022/05/18 11:19:45;;;;;;;11.00;4.82;;;;;;;30.45;35.74;102214.28;5216971;28;20496;-57
2022/05/18 11:22:35;;;;;;;10.67;5.27;;;;;;;30.59;35.67;102212.84;5212584;28;20751;-57
2022/05/18 11:25:21;;;;;;;11.07;5.13;;;;;;;30.45;35.89;102208.84;5193173;28;20426;-55
2022/05/18 11:28:00;;;;;;;9.63;4.70;;;;;;;30.53;35.74;102214.66;5169414;28;20949;-55
2022/05/18 11:30:43;;;;;;;10.68;4.68;;;;;;;30.54;35.88;102215.50;5199149;28;20497;-53
2022/05/18 11:33:28;;;;;;;9.02;4.47;;;;;;;30.35;35.65;102187.69;5203280;28;20890;-54
2022/05/18 11:36:14;;;;;;;10.63;4.88;;;;;;;30.54;35.48;102210.06;5208117;28;20794;-55
2022/05/18 11:39:01;;;;;;;11.20;4.97;;;;;;;30.58;35.45;102208.47;5198898;28;20900;-55
2022/05/18 11:41:57;;;;;;;9.52;5.35;;;;;;;30.50;35.90;102211.59;5205157;28;20508;-55
2022/05/18 11:44:41;;;;;;;11.43;5.82;;;;;;;30.44;35.89;102207.16;5214773;28;20480;-54
2022/05/18 11:47:30;;;;;;;8.73;5.63;;;;;;;30.44;35.77;102201.72;5210338;28;20473;-57
2022/05/18 11:50:17;;;;;;;10.90;5.80;;;;;;;30.48;35.66;102197.44;5204025;28;20809;-55
2022/05/18 11:53:09;;;;;;;14.07;6.10;;;;;;;30.48;35.45;102191.97;5163680;28;20867;-55
2022/05/18 11:55:57;;;;;;;15.05;6.95;;;;;;;30.46;35.53;102177.75;5170095;28;20827;-57
2022/05/18 11:58:48;;;;;;;14.70;6.57;;;;;;;30.37;35.56;102204.59;5179147;28;20540;-55
2022/05/18 12:01:31;;;;;;;11.25;6.43;;;;;;;29.94;36.04;102207.97;5170358;28;20411;-56
2022/05/18 12:04:25;;;;;;;13.65;7.85;;;;;;;29.30;36.50;102189.94;5187220;28;20435;-53
2022/05/18 12:07:24;;;;;;;14.48;6.20;;;;;;;29.21;36.66;102196.81;5184506;28;20586;-55
2022/05/18 12:10:17;;;;;;;9.95;5.60;;;;;;;29.34;36.41;102182.94;5185264;28;20513;-56
2022/05/18 12:13:00;;;;;;;9.68;4.97;;;;;;;29.84;36.18;102208.63;5172733;28;20433;-54
2022/05/18 12:15:44;;;;;;;14.43;6.13;;;;;;;29.93;35.72;102198.16;5148598;28;20832;-56